Time;durP1;ratioP1;P1;durP2;ratioP2;P2;SDS_P1;SDS_P2;PMS_P1;PMS_P2;Temp;Humidity;BMP_temperature;BMP_pressure;BME280_temperature;BME280_humidity;BME280_pressure;Samples;Min_cycle;Max_cycle;Signal;HPM_P1;HPM_P2
2022/03/11 00:00:05;;;;;;;26.38;12.82;;;5.70;94.80;;;;;;5019019;28;20034;-77
2022/03/11 00:02:30;;;;;;;22.48;12.20;;;5.70;94.80;;;;;;5015362;28;20442;-75
2022/03/11 00:04:57;;;;;;;21.75;11.63;;;5.70;94.80;;;;;;5016004;28;20033;-76
2022/03/11 00:07:23;;;;;;;26.05;11.75;;;5.70;94.90;;;;;;5015581;28;20036;-77
2022/03/11 00:09:50;;;;;;;18.55;11.18;;;5.60;94.90;;;;;;5015602;28;20096;-76
2022/03/11 00:12:15;;;;;;;24.65;11.80;;;5.50;95.20;;;;;;5016107;28;20057;-76
2022/03/11 00:14:41;;;;;;;24.25;12.38;;;5.50;94.80;;;;;;5014586;28;20053;-77
2022/03/11 00:17:07;;;;;;;27.90;12.43;;;5.50;94.80;;;;;;5015530;28;20493;-75
2022/03/11 00:19:33;;;;;;;20.33;11.80;;;5.60;94.80;;;;;;5015881;28;20121;-76
2022/03/11 00:21:59;;;;;;;23.95;11.82;;;5.50;94.80;;;;;;5016146;28;20037;-75
2022/03/11 00:24:25;;;;;;;23.17;11.88;;;5.50;94.80;;;;;;5017773;28;20022;-76
2022/03/11 00:26:52;;;;;;;23.30;12.13;;;5.50;94.60;;;;;;5015426;28;20022;-75
2022/03/11 00:29:18;;;;;;;23.08;12.27;;;5.40;94.70;;;;;;5015797;28;20018;-76
2022/03/11 00:31:45;;;;;;;24.42;11.55;;;5.40;94.70;;;;;;5015256;28;20025;-75
2022/03/11 00:34:11;;;;;;;23.20;11.50;;;5.30;94.90;;;;;;5017916;28;20029;-76
2022/03/11 00:36:37;;;;;;;21.83;11.50;;;5.30;95.20;;;;;;5014567;28;20026;-75
2022/03/11 00:39:03;;;;;;;23.15;11.40;;;5.30;94.90;;;;;;5014253;28;20026;-75
2022/03/11 00:41:28;;;;;;;26.15;12.23;;;5.20;94.70;;;;;;5015641;28;20043;-76
2022/03/11 00:43:55;;;;;;;22.92;11.60;;;5.20;94.80;;;;;;5015514;28;20032;-76
2022/03/11 00:46:21;;;;;;;24.13;12.35;;;5.10;95.00;;;;;;5015099;28;20025;-74
2022/03/11 00:48:46;;;;;;;22.98;11.27;;;5.10;95.30;;;;;;5013620;28;20030;-76
2022/03/11 00:51:12;;;;;;;24.52;13.02;;;5.00;95.50;;;;;;5016189;28;20034;-75
2022/03/11 00:53:37;;;;;;;21.63;11.77;;;5.00;95.60;;;;;;5015521;28;20018;-74
2022/03/11 00:56:03;;;;;;;23.45;12.10;;;4.90;95.70;;;;;;5015228;28;20018;-74
2022/03/11 00:58:29;;;;;;;24.15;11.85;;;4.90;95.80;;;;;;5015879;28;20026;-77
2022/03/11 01:00:54;;;;;;;27.30;12.10;;;4.90;95.90;;;;;;5018377;28;20041;-78
2022/03/11 01:03:20;;;;;;;21.90;11.23;;;4.80;96.20;;;;;;5023093;28;20030;-76
2022/03/11 01:05:46;;;;;;;30.42;12.57;;;4.80;96.00;;;;;;5022848;28;20026;-77
2022/03/11 01:08:11;;;;;;;25.48;12.75;;;4.80;96.10;;;;;;5021674;28;20117;-76
2022/03/11 01:10:38;;;;;;;21.95;11.32;;;4.70;96.10;;;;;;5017296;28;20081;-75
2022/03/11 01:13:06;;;;;;;23.13;12.02;;;4.70;96.20;;;;;;5013710;28;20030;-75
2022/03/11 01:15:31;;;;;;;27.52;11.60;;;4.70;96.20;;;;;;5013110;28;20022;-75
2022/03/11 01:17:57;;;;;;;26.85;11.65;;;4.60;96.20;;;;;;5041795;22;20045;-76
2022/03/11 01:20:23;;;;;;;25.77;11.63;;;4.50;96.30;;;;;;5073521;28;20035;-76
2022/03/11 01:22:48;;;;;;;22.17;11.52;;;4.50;96.40;;;;;;5093705;28;20036;-77
2022/03/11 01:25:14;;;;;;;28.98;12.10;;;4.50;96.40;;;;;;5094442;28;20039;-77
2022/03/11 01:27:40;;;;;;;25.10;11.52;;;4.40;96.40;;;;;;5096797;28;20047;-78
2022/03/11 01:30:07;;;;;;;28.02;12.07;;;4.40;96.60;;;;;;5080944;28;20020;-76
2022/03/11 01:32:32;;;;;;;22.50;11.38;;;4.30;96.50;;;;;;5098057;28;20151;-77
2022/03/11 01:34:58;;;;;;;20.35;11.13;;;4.30;96.50;;;;;;5098016;28;20021;-77
2022/03/11 01:37:24;;;;;;;23.00;11.18;;;4.30;96.60;;;;;;5095712;28;20028;-76
2022/03/11 01:39:49;;;;;;;20.23;11.55;;;4.30;96.60;;;;;;5091674;28;20461;-76
2022/03/11 01:42:15;;;;;;;22.98;10.95;;;4.30;96.90;;;;;;5074379;28;20563;-76
2022/03/11 01:44:41;;;;;;;26.58;11.38;;;4.20;96.50;;;;;;5057098;28;20029;-76
2022/03/11 01:47:07;;;;;;;29.42;11.20;;;4.30;96.50;;;;;;5073863;28;20028;-76
2022/03/11 01:49:33;;;;;;;23.38;11.52;;;4.20;96.50;;;;;;5073816;28;20023;-76
2022/03/11 01:51:59;;;;;;;19.80;10.55;;;4.20;96.50;;;;;;5055383;28;20032;-77
2022/03/11 01:54:24;;;;;;;25.60;11.65;;;4.10;96.50;;;;;;5057831;28;20029;-77
2022/03/11 01:56:51;;;;;;;26.00;10.70;;;4.10;96.40;;;;;;5076934;28;20385;-78
2022/03/11 01:59:17;;;;;;;21.85;11.27;;;4.10;96.50;;;;;;5077067;28;20024;-77
2022/03/11 02:01:42;;;;;;;22.35;10.50;;;4.10;96.50;;;;;;5076706;28;20037;-76
2022/03/11 02:04:08;;;;;;;22.00;10.98;;;4.10;96.50;;;;;;5076134;28;20028;-76
2022/03/11 02:06:34;;;;;;;19.92;10.27;;;4.00;96.50;;;;;;5073832;28;20028;-77
2022/03/11 02:09:01;;;;;;;24.17;10.63;;;4.00;96.50;;;;;;5073601;28;20024;-77
2022/03/11 02:11:27;;;;;;;20.35;10.65;;;4.10;96.50;;;;;;5073491;28;20039;-77
2022/03/11 02:13:59;;;;;;;21.92;10.98;;;4.00;96.50;;;;;;5073954;28;20465;-77
2022/03/11 02:16:27;;;;;;;22.65;11.02;;;3.90;96.50;;;;;;5073108;28;20024;-75
2022/03/11 02:18:52;;;;;;;23.90;10.80;;;3.90;96.60;;;;;;5054856;28;20055;-77
2022/03/11 02:21:20;;;;;;;24.05;11.30;;;3.90;96.40;;;;;;5074706;28;20477;-76
2022/03/11 02:23:47;;;;;;;22.02;10.20;;;3.90;96.50;;;;;;5056641;28;20134;-75
2022/03/11 02:26:14;;;;;;;23.10;10.52;;;3.90;96.30;;;;;;5057068;28;20473;-76
2022/03/11 02:28:41;;;;;;;23.70;10.70;;;3.90;96.30;;;;;;5077210;28;20044;-76
2022/03/11 02:31:07;;;;;;;22.65;10.98;;;3.80;96.30;;;;;;5077856;28;20059;-76
2022/03/11 02:33:33;;;;;;;25.70;11.15;;;3.80;96.40;;;;;;5075853;28;20024;-76
2022/03/11 02:35:59;;;;;;;21.80;10.95;;;3.70;96.40;;;;;;5072775;28;20024;-77
2022/03/11 02:38:25;;;;;;;26.73;11.50;;;3.80;96.40;;;;;;5073557;28;20099;-75
2022/03/11 02:40:50;;;;;;;22.35;10.18;;;3.70;96.40;;;;;;5072191;28;20533;-75
2022/03/11 02:43:16;;;;;;;21.92;11.27;;;3.70;96.40;;;;;;5072214;28;20417;-77
2022/03/11 02:45:42;;;;;;;26.45;11.82;;;3.70;96.40;;;;;;5054659;28;20032;-76
2022/03/11 02:48:07;;;;;;;23.30;11.10;;;3.70;96.30;;;;;;5072285;28;20401;-75
2022/03/11 02:50:33;;;;;;;24.65;10.70;;;3.70;96.30;;;;;;5072363;28;20021;-76
2022/03/11 02:52:58;;;;;;;21.17;11.13;;;3.70;96.50;;;;;;5072328;28;20044;-75
2022/03/11 02:55:24;;;;;;;21.00;10.38;;;3.70;96.50;;;;;;5072411;28;20029;-76
2022/03/11 02:57:49;;;;;;;28.52;10.85;;;3.70;96.60;;;;;;5072108;28;20087;-76
2022/03/11 03:00:15;;;;;;;28.30;11.25;;;3.60;96.50;;;;;;5072310;28;20405;-75
2022/03/11 03:02:41;;;;;;;22.88;11.27;;;3.60;96.40;;;;;;5072004;28;20032;-74
2022/03/11 03:05:07;;;;;;;23.33;11.15;;;3.60;96.50;;;;;;5072433;28;20025;-74
2022/03/11 03:07:33;;;;;;;23.40;11.15;;;3.50;96.40;;;;;;5072061;28;20025;-76
2022/03/11 03:09:59;;;;;;;18.58;10.50;;;3.50;96.60;;;;;;5072362;28;20435;-76
2022/03/11 03:12:25;;;;;;;23.50;10.80;;;3.40;96.60;;;;;;5072138;28;20028;-74
2022/03/11 03:14:51;;;;;;;31.00;11.30;;;3.40;96.70;;;;;;5072360;28;20028;-76
2022/03/11 03:17:18;;;;;;;24.55;10.68;;;3.30;96.70;;;;;;5071707;28;20024;-76
2022/03/11 03:19:44;;;;;;;27.00;11.50;;;3.30;96.70;;;;;;5072703;28;20062;-76
2022/03/11 03:22:10;;;;;;;24.33;11.45;;;3.30;96.70;;;;;;5072821;28;20077;-76
2022/03/11 03:24:35;;;;;;;25.63;11.48;;;3.30;96.70;;;;;;5076518;28;20084;-77
2022/03/11 03:27:02;;;;;;;22.23;11.55;;;3.40;96.70;;;;;;5073513;28;20036;-76
2022/03/11 03:29:28;;;;;;;21.77;10.20;;;3.40;96.80;;;;;;5071730;28;20031;-76
2022/03/11 03:31:57;;;;;;;22.48;11.43;;;3.30;96.80;;;;;;5075175;28;20042;-75
2022/03/11 03:34:31;;;;;;;26.70;11.35;;;3.20;96.80;;;;;;5075414;28;20070;-76
2022/03/11 03:36:58;;;;;;;29.48;11.63;;;3.20;97.00;;;;;;5076784;28;20037;-75
2022/03/11 03:39:24;;;;;;;27.33;12.40;;;3.10;97.00;;;;;;5075958;28;20060;-75
2022/03/11 03:41:50;;;;;;;29.15;12.77;;;3.20;97.10;;;;;;5058312;28;20033;-75
2022/03/11 03:44:16;;;;;;;26.60;11.40;;;3.30;97.10;;;;;;5076872;28;20024;-76
2022/03/11 03:46:42;;;;;;;37.40;12.38;;;3.30;96.90;;;;;;5075276;28;20031;-75
2022/03/11 03:49:07;;;;;;;27.00;12.55;;;3.20;97.00;;;;;;5075713;28;20040;-75
2022/03/11 03:51:33;;;;;;;27.10;12.95;;;3.20;97.10;;;;;;5057812;28;20060;-75
2022/03/11 03:53:58;;;;;;;29.02;13.63;;;3.20;97.30;;;;;;5076394;28;20426;-76
2022/03/11 03:56:24;;;;;;;26.98;12.05;;;3.30;97.30;;;;;;5076925;28;20028;-77
2022/03/11 03:58:49;;;;;;;28.02;13.27;;;3.30;97.00;;;;;;5076242;28;20047;-76
2022/03/11 04:01:15;;;;;;;26.92;11.80;;;3.20;96.70;;;;;;5076035;28;20028;-77
2022/03/11 04:03:41;;;;;;;26.23;11.75;;;3.20;96.80;;;;;;5081873;28;20111;-79
2022/03/11 04:06:06;;;;;;;23.50;11.25;;;3.10;97.00;;;;;;5081598;28;20070;-79
2022/03/11 04:08:32;;;;;;;26.08;11.82;;;3.10;97.00;;;;;;5083075;28;20124;-78
2022/03/11 04:10:58;;;;;;;29.63;13.02;;;3.00;97.00;;;;;;5085292;28;20024;-79
2022/03/11 04:13:23;;;;;;;27.00;12.10;;;3.00;97.00;;;;;;5085689;28;20020;-80
2022/03/11 04:15:49;;;;;;;23.35;11.73;;;2.90;97.10;;;;;;5085354;28;20025;-77
2022/03/11 04:18:14;;;;;;;28.55;12.52;;;2.80;97.30;;;;;;5084607;28;20039;-80
2022/03/11 04:20:40;;;;;;;30.10;12.63;;;2.80;97.40;;;;;;5083659;28;20032;-80
2022/03/11 04:23:06;;;;;;;29.30;12.93;;;2.80;97.50;;;;;;5079478;28;20028;-76
2022/03/11 04:25:32;;;;;;;26.83;11.88;;;2.80;97.40;;;;;;5076315;28;20095;-75
2022/03/11 04:27:57;;;;;;;24.35;12.57;;;2.70;97.50;;;;;;5077395;28;20028;-77
2022/03/11 04:30:23;;;;;;;27.80;13.05;;;2.70;97.60;;;;;;5059083;28;20016;-77
2022/03/11 04:32:49;;;;;;;28.80;13.18;;;2.60;97.80;;;;;;5080674;28;20054;-78
2022/03/11 04:35:14;;;;;;;27.60;12.63;;;2.70;97.70;;;;;;5084404;28;20094;-79
2022/03/11 04:37:40;;;;;;;27.63;12.45;;;2.70;97.50;;;;;;5078157;28;20029;-76
2022/03/11 04:40:06;;;;;;;31.08;12.63;;;2.60;97.40;;;;;;5075275;28;20090;-75
2022/03/11 04:42:32;;;;;;;23.27;12.18;;;2.60;97.50;;;;;;5075413;28;20495;-77
2022/03/11 04:44:57;;;;;;;29.10;12.63;;;2.60;97.60;;;;;;5076128;28;20028;-77
2022/03/11 04:47:23;;;;;;;28.25;12.48;;;2.50;97.60;;;;;;5057784;28;20048;-78
2022/03/11 04:49:49;;;;;;;30.48;13.43;;;2.50;97.50;;;;;;5075936;28;20048;-77
2022/03/11 04:52:14;;;;;;;33.67;13.68;;;2.40;97.60;;;;;;5074514;28;20024;-77
2022/03/11 04:54:40;;;;;;;24.33;11.43;;;2.50;97.70;;;;;;5075248;28;20078;-77
2022/03/11 04:57:05;;;;;;;28.08;12.45;;;2.50;97.60;;;;;;5074570;28;20478;-75
2022/03/11 04:59:31;;;;;;;31.27;12.43;;;2.40;97.60;;;;;;5075360;28;20028;-76
2022/03/11 05:01:56;;;;;;;37.10;13.25;;;2.40;97.70;;;;;;5056771;28;20032;-77
2022/03/11 05:04:22;;;;;;;26.63;13.05;;;2.30;97.70;;;;;;5075741;28;20035;-77
2022/03/11 05:06:47;;;;;;;28.85;13.57;;;2.30;97.70;;;;;;5074921;28;20154;-76
2022/03/11 05:09:13;;;;;;;27.02;12.90;;;2.30;97.80;;;;;;5074713;28;20107;-76
2022/03/11 05:11:38;;;;;;;27.48;12.05;;;2.30;99.70;;;;;;5075992;28;20092;-76
2022/03/11 05:14:04;;;;;;;42.78;13.20;;;2.30;97.90;;;;;;5080376;28;20030;-76
2022/03/11 05:16:30;;;;;;;28.95;13.38;;;2.30;97.80;;;;;;5060845;28;20370;-76
2022/03/11 05:18:56;;;;;;;30.08;12.65;;;2.20;97.90;;;;;;5076639;28;20098;-76
2022/03/11 05:21:21;;;;;;;32.22;13.70;;;2.20;97.90;;;;;;5078282;28;20036;-75
2022/03/11 05:23:47;;;;;;;32.10;13.43;;;2.20;98.00;;;;;;5078927;28;20172;-76
2022/03/11 05:26:24;;;;;;;29.88;12.48;;;2.20;97.90;;;;;;5077618;28;20020;-74
2022/03/11 05:28:53;;;;;;;30.88;13.75;;;2.10;98.00;;;;;;5078851;28;20035;-78
2022/03/11 05:31:19;;;;;;;30.45;13.95;;;2.20;97.90;;;;;;5071783;28;20036;-77
2022/03/11 05:33:45;;;;;;;26.48;12.57;;;2.20;97.90;;;;;;5054090;28;20096;-76
2022/03/11 05:36:10;;;;;;;29.42;12.70;;;2.20;97.80;;;;;;5053716;28;20441;-75
2022/03/11 05:38:36;;;;;;;26.52;12.27;;;2.20;97.80;;;;;;5054691;28;20632;-75
2022/03/11 05:41:01;;;;;;;29.85;12.82;;;2.20;97.70;;;;;;5054728;28;20065;-75
2022/03/11 05:43:27;;;;;;;26.70;13.38;;;2.10;97.70;;;;;;5037645;28;20040;-76
2022/03/11 05:45:53;;;;;;;28.17;13.60;;;2.10;97.60;;;;;;5055615;28;20044;-76
2022/03/11 05:48:18;;;;;;;30.42;13.10;;;2.10;97.70;;;;;;5054806;28;20067;-77
2022/03/11 05:50:44;;;;;;;29.15;12.98;;;2.10;97.60;;;;;;5055953;28;20029;-76
2022/03/11 05:53:09;;;;;;;29.65;13.48;;;2.00;97.80;;;;;;5055287;28;20470;-78
2022/03/11 05:55:35;;;;;;;36.15;14.55;;;2.10;99.90;;;;;;5037922;28;20402;-75
2022/03/11 05:58:00;;;;;;;29.15;13.60;;;2.00;97.60;;;;;;5056413;28;20039;-77
2022/03/11 06:00:26;;;;;;;26.70;12.35;;;2.00;97.70;;;;;;5056762;28;20029;-77
2022/03/11 06:02:51;;;;;;;34.47;13.15;;;2.00;97.60;;;;;;5054756;28;20052;-76
2022/03/11 06:05:17;;;;;;;29.88;12.63;;;2.00;97.50;;;;;;5054989;28;20029;-75
2022/03/11 06:07:42;;;;;;;27.60;13.27;;;2.00;97.40;;;;;;5054813;28;20020;-76
2022/03/11 06:10:08;;;;;;;32.78;13.43;;;2.00;97.40;;;;;;5038550;28;20116;-76
2022/03/11 06:12:34;;;;;;;39.95;12.88;;;1.90;99.90;;;;;;5036990;28;20025;-76
2022/03/11 06:15:04;;;;;;;30.55;13.00;;;2.00;97.30;;;;;;5055870;28;20021;-77
2022/03/11 06:17:29;;;;;;;26.80;12.88;;;2.00;97.20;;;;;;5061269;28;20096;-77
2022/03/11 06:19:55;;;;;;;28.65;12.10;;;2.00;97.40;;;;;;5060700;28;20056;-78
2022/03/11 06:22:20;;;;;;;30.83;14.13;;;2.00;97.30;;;;;;5059159;28;20537;-78
2022/03/11 06:24:46;;;;;;;28.13;12.73;;;2.00;97.30;;;;;;5057940;28;20482;-74
2022/03/11 06:27:11;;;;;;;34.42;13.27;;;2.00;97.00;;;;;;5054973;28;20033;-76
2022/03/11 06:29:37;;;;;;;29.95;12.57;;;2.00;97.00;;;;;;5054337;28;20489;-77
2022/03/11 06:32:03;;;;;;;29.65;12.75;;;2.00;97.00;;;;;;5036443;28;20079;-77
2022/03/11 06:34:29;;;;;;;29.55;13.23;;;2.00;97.10;;;;;;5053559;28;20412;-76
2022/03/11 06:36:55;;;;;;;32.28;12.98;;;2.00;97.10;;;;;;5035681;28;20017;-74
2022/03/11 06:39:20;;;;;;;35.90;11.73;;;2.10;96.70;;;;;;5053914;28;20462;-75
2022/03/11 06:41:46;;;;;;;30.95;12.85;;;2.10;96.70;;;;;;5034890;28;20083;-76
2022/03/11 06:44:11;;;;;;;30.45;12.77;;;2.10;96.70;;;;;;5052994;28;20029;-75
2022/03/11 06:46:37;;;;;;;30.08;12.20;;;2.10;96.70;;;;;;5053208;28;20017;-75
2022/03/11 06:49:03;;;;;;;24.67;12.25;;;2.10;96.60;;;;;;5054640;28;20036;-76
2022/03/11 06:51:28;;;;;;;32.42;12.05;;;2.20;96.40;;;;;;5054483;28;20059;-76
2022/03/11 06:53:54;;;;;;;27.75;12.70;;;2.20;96.40;;;;;;5054680;28;20607;-77
2022/03/11 06:56:20;;;;;;;31.67;12.80;;;2.20;96.30;;;;;;5034643;28;20025;-76
2022/03/11 06:58:45;;;;;;;31.83;13.07;;;2.20;96.20;;;;;;5055768;28;20492;-76
2022/03/11 07:01:11;;;;;;;40.72;13.82;;;2.20;96.20;;;;;;5055473;28;20033;-76
2022/03/11 07:03:36;;;;;;;29.65;12.98;;;2.20;96.20;;;;;;5035975;28;20032;-78
2022/03/11 07:06:02;;;;;;;34.40;13.25;;;2.30;96.00;;;;;;5058205;28;20025;-75
2022/03/11 07:08:28;;;;;;;31.80;12.98;;;2.30;95.80;;;;;;5058734;28;20450;-76
2022/03/11 07:10:54;;;;;;;33.42;13.07;;;2.40;95.80;;;;;;5040948;28;20113;-78
2022/03/11 07:13:19;;;;;;;32.30;12.73;;;2.40;95.70;;;;;;5041568;28;20025;-76
2022/03/11 07:15:45;;;;;;;28.48;12.40;;;2.50;95.70;;;;;;5058907;28;20028;-75
2022/03/11 07:18:12;;;;;;;28.13;12.23;;;2.50;95.10;;;;;;5061634;22;20025;-77
2022/03/11 07:20:37;;;;;;;26.52;12.43;;;2.60;95.20;;;;;;5036228;28;20030;-77
2022/03/11 07:23:03;;;;;;;32.55;13.52;;;2.60;95.00;;;;;;5034691;28;20022;-77
2022/03/11 07:25:29;;;;;;;26.70;12.05;;;2.60;94.80;;;;;;5022335;28;20058;-77
2022/03/11 07:27:54;;;;;;;31.13;12.20;;;2.60;94.60;;;;;;5049323;28;20026;-78
2022/03/11 07:30:20;;;;;;;27.13;12.68;;;2.70;94.40;;;;;;5027772;28;20116;-77
2022/03/11 07:32:46;;;;;;;29.42;11.98;;;2.70;94.10;;;;;;5023576;28;20026;-77
2022/03/11 07:35:13;;;;;;;30.73;13.23;;;2.70;94.20;;;;;;5039824;28;20029;-78
2022/03/11 07:37:40;;;;;;;34.00;12.27;;;2.80;94.10;;;;;;5023071;28;20109;-77
2022/03/11 07:40:06;;;;;;;25.20;12.27;;;2.80;94.00;;;;;;5019458;28;20060;-77
2022/03/11 07:42:32;;;;;;;28.45;11.85;;;2.90;93.70;;;;;;5029319;28;20026;-78
2022/03/11 07:44:59;;;;;;;30.30;12.05;;;2.90;93.30;;;;;;5019486;28;20050;-78
2022/03/11 07:47:25;;;;;;;36.78;12.55;;;2.90;93.20;;;;;;5019854;28;20451;-77
2022/03/11 07:49:51;;;;;;;27.15;12.57;;;2.90;93.00;;;;;;5019604;28;20030;-78
2022/03/11 07:52:17;;;;;;;32.75;12.68;;;3.00;93.20;;;;;;5017945;28;20105;-77
2022/03/11 07:54:43;;;;;;;29.38;12.10;;;3.10;92.90;;;;;;5020280;28;20029;-78
2022/03/11 07:57:09;;;;;;;30.23;11.57;;;3.30;92.60;;;;;;5024262;28;20034;-78
2022/03/11 07:59:37;;;;;;;37.38;12.32;;;3.40;92.50;;;;;;5023720;28;20030;-77
2022/03/11 08:02:03;;;;;;;26.83;12.68;;;3.50;91.90;;;;;;5031503;28;20048;-78
2022/03/11 08:04:32;;;;;;;25.30;11.63;;;3.60;91.70;;;;;;5024857;28;20432;-77
2022/03/11 08:07:06;;;;;;;29.85;12.50;;;3.60;91.90;;;;;;5026500;28;20069;-78
2022/03/11 08:09:35;;;;;;;30.35;11.43;;;3.70;91.70;;;;;;5026593;28;20033;-77
2022/03/11 08:12:01;;;;;;;32.13;12.75;;;3.90;90.60;;;;;;5026133;28;20056;-77
2022/03/11 08:14:27;;;;;;;28.30;11.45;;;4.00;90.20;;;;;;5021719;28;20080;-77
2022/03/11 08:16:52;;;;;;;25.77;11.38;;;4.00;88.70;;;;;;5020571;28;20495;-77
2022/03/11 08:19:18;;;;;;;27.70;11.23;;;4.00;88.90;;;;;;5016815;28;20510;-77
2022/03/11 08:21:44;;;;;;;34.08;12.00;;;4.10;87.90;;;;;;5018534;28;20026;-78
2022/03/11 08:24:09;;;;;;;26.02;11.32;;;4.10;87.40;;;;;;5018296;28;20030;-76
2022/03/11 08:26:35;;;;;;;25.95;11.63;;;4.20;85.80;;;;;;5017098;28;20033;-76
2022/03/11 08:29:00;;;;;;;27.20;11.55;;;4.20;86.60;;;;;;5017340;28;20398;-77
2022/03/11 08:31:26;;;;;;;30.83;12.30;;;4.40;84.20;;;;;;5015878;28;20407;-77
2022/03/11 08:33:51;;;;;;;26.25;10.90;;;4.50;83.60;;;;;;5017927;28;20037;-78
2022/03/11 08:36:17;;;;;;;26.70;10.88;;;4.70;83.10;;;;;;5017477;28;20505;-77
2022/03/11 08:38:42;;;;;;;32.55;10.90;;;5.00;82.10;;;;;;5025831;28;20063;-76
2022/03/11 08:41:08;;;;;;;25.45;11.32;;;5.40;79.50;;;;;;5024555;28;20395;-77
2022/03/11 08:43:38;;;;;;;34.15;11.50;;;6.10;78.40;;;;;;5021176;28;20068;-77
2022/03/11 08:46:04;;;;;;;26.85;11.40;;;6.60;73.70;;;;;;5018731;28;20029;-77
2022/03/11 08:48:30;;;;;;;29.50;11.15;;;7.30;90.70;;;;;;5019206;28;20088;-78
2022/03/11 08:50:55;;;;;;;27.70;11.30;;;7.80;81.50;;;;;;5016447;28;20056;-76
2022/03/11 08:53:21;;;;;;;27.08;11.30;;;8.50;76.10;;;;;;5016803;28;20033;-76
2022/03/11 08:55:47;;;;;;;24.95;10.85;;;8.90;67.70;;;;;;5024895;28;20038;-79
2022/03/11 08:58:13;;;;;;;28.25;10.95;;;9.50;62.90;;;;;;5021006;28;20101;-77
2022/03/11 09:00:41;;;;;;;23.88;10.70;;;9.90;60.00;;;;;;5020353;28;20076;-77
2022/03/11 09:03:06;;;;;;;27.92;11.55;;;10.50;57.70;;;;;;5017110;28;20037;-77
2022/03/11 09:05:33;;;;;;;26.27;10.38;;;11.00;55.50;;;;;;5024100;28;20025;-77
2022/03/11 09:07:59;;;;;;;26.98;10.27;;;11.50;52.10;;;;;;5035249;28;20018;-78
2022/03/11 09:10:25;;;;;;;32.40;10.80;;;11.30;50.20;;;;;;5032414;28;20474;-77
2022/03/11 09:12:50;;;;;;;28.33;11.18;;;11.10;50.60;;;;;;5016694;28;20030;-75
2022/03/11 09:15:16;;;;;;;26.15;11.10;;;11.40;51.00;;;;;;5014041;28;20072;-77
2022/03/11 09:17:44;;;;;;;29.20;11.32;;;11.90;50.80;;;;;;5016546;28;20379;-77
2022/03/11 09:20:12;;;;;;;26.52;12.13;;;12.40;48.60;;;;;;5019590;28;20077;-77
2022/03/11 09:22:38;;;;;;;21.45;10.38;;;12.30;47.30;;;;;;5024639;28;20364;-77
2022/03/11 09:25:07;;;;;;;31.73;11.68;;;12.50;46.60;;;;;;5021958;28;20105;-77
2022/03/11 09:27:33;;;;;;;21.50;10.32;;;12.70;46.50;;;;;;5018556;28;20105;-77
2022/03/11 09:29:59;;;;;;;36.65;10.65;;;13.00;45.40;;;;;;5026887;28;20025;-78
2022/03/11 09:32:25;;;;;;;30.10;11.65;;;12.80;44.20;;;;;;5020780;28;20088;-77
2022/03/11 09:34:51;;;;;;;22.20;10.43;;;12.50;44.30;;;;;;5016350;28;20390;-76
2022/03/11 09:37:16;;;;;;;24.00;10.10;;;12.10;44.80;;;;;;5022235;28;20086;-77
2022/03/11 09:39:42;;;;;;;26.50;11.10;;;12.30;45.20;;;;;;5020698;28;20552;-77
2022/03/11 09:42:07;;;;;;;29.77;11.25;;;13.00;45.10;;;;;;5018452;28;20022;-77
2022/03/11 09:44:34;;;;;;;29.70;10.75;;;13.80;43.60;;;;;;5028188;28;20056;-77
2022/03/11 09:47:00;;;;;;;29.42;12.40;;;14.10;41.40;;;;;;5020756;28;20109;-78
2022/03/11 09:49:26;;;;;;;21.33;9.40;;;14.30;41.50;;;;;;5017326;28;20018;-78
2022/03/11 09:51:52;;;;;;;23.98;9.70;;;14.40;39.80;;;;;;5021655;28;20036;-78
2022/03/11 09:54:18;;;;;;;33.15;10.65;;;14.20;39.50;;;;;;5019699;28;20081;-76
2022/03/11 09:56:44;;;;;;;18.67;9.45;;;13.50;39.60;;;;;;5029455;28;20057;-76
2022/03/11 09:59:12;;;;;;;20.55;10.05;;;13.30;40.10;;;;;;5028324;28;20034;-79
2022/03/11 10:01:42;;;;;;;21.15;9.77;;;13.60;40.60;;;;;;5021062;28;20029;-77
2022/03/11 10:04:08;;;;;;;26.80;10.10;;;13.90;39.70;;;;;;5025631;28;20026;-79
2022/03/11 10:06:39;;;;;;;22.52;9.57;;;14.10;39.20;;;;;;5029963;28;20049;-78
2022/03/11 10:09:06;;;;;;;20.00;9.73;;;14.30;39.00;;;;;;5022237;28;20022;-78
2022/03/11 10:11:32;;;;;;;23.50;9.65;;;14.60;38.70;;;;;;5020802;28;20509;-78
2022/03/11 10:14:06;;;;;;;23.58;9.63;;;14.70;38.00;;;;;;5020259;28;20026;-77
2022/03/11 10:16:32;;;;;;;28.42;11.38;;;14.80;37.60;;;;;;5020391;28;20037;-77
2022/03/11 10:18:59;;;;;;;22.77;10.02;;;14.50;38.10;;;;;;5019762;28;20038;-77
2022/03/11 10:21:45;;;;;;;20.45;9.77;;;14.40;37.50;;;;;;5030764;28;20030;-78
2022/03/11 10:24:14;;;;;;;20.42;9.85;;;14.60;37.80;;;;;;5029667;28;20033;-77
2022/03/11 10:26:42;;;;;;;22.42;9.45;;;14.80;37.00;;;;;;5027166;28;20394;-78
2022/03/11 10:29:13;;;;;;;24.13;9.35;;;16.10;36.60;;;;;;5027552;28;20033;-78
2022/03/11 10:31:45;;;;;;;24.20;9.85;;;16.30;36.10;;;;;;5029830;28;20022;-78
2022/03/11 10:34:21;;;;;;;21.90;9.43;;;16.40;34.00;;;;;;5026469;28;20541;-77
2022/03/11 10:36:55;;;;;;;26.77;9.65;;;16.00;34.30;;;;;;5025879;28;20110;-77
2022/03/11 10:39:43;;;;;;;19.90;9.43;;;16.30;34.40;;;;;;5023551;28;20075;-77
2022/03/11 10:42:12;;;;;;;22.83;10.07;;;16.60;34.80;;;;;;5022531;28;20552;-78
2022/03/11 10:44:38;;;;;;;27.80;10.10;;;16.70;34.60;;;;;;5024894;28;20033;-79
2022/03/11 10:47:22;;;;;;;22.65;9.93;;;17.00;34.60;;;;;;5025775;28;20022;-78
2022/03/11 10:49:59;;;;;;;19.05;10.05;;;17.90;33.60;;;;;;5024012;28;20033;-77
2022/03/11 10:52:32;;;;;;;21.95;10.13;;;18.50;33.20;;;;;;5021544;28;20014;-77
2022/03/11 10:54:59;;;;;;;19.63;10.52;;;18.50;33.10;;;;;;5025334;28;20010;-77
2022/03/11 10:57:35;;;;;;;20.05;10.07;;;18.60;32.70;;;;;;5017918;28;20033;-78
2022/03/11 11:00:24;;;;;;;21.80;11.23;;;18.50;32.80;;;;;;5015193;28;20021;-77
2022/03/11 11:02:51;;;;;;;21.33;10.40;;;18.10;32.40;;;;;;5018074;28;20030;-77
2022/03/11 11:05:17;;;;;;;20.13;10.10;;;18.40;32.00;;;;;;5022049;28;20022;-77
2022/03/11 11:07:44;;;;;;;22.60;9.57;;;18.30;31.50;;;;;;5020254;28;20076;-78
2022/03/11 11:10:15;;;;;;;23.60;10.57;;;18.50;32.00;;;;;;5019159;28;20033;-77
2022/03/11 11:12:41;;;;;;;19.48;9.98;;;18.60;31.60;;;;;;5019430;28;20134;-77
2022/03/11 11:15:08;;;;;;;24.42;10.75;;;18.60;30.60;;;;;;5018328;28;20026;-78
2022/03/11 11:17:37;;;;;;;20.70;9.77;;;18.10;31.80;;;;;;5017748;28;20435;-77
2022/03/11 11:20:15;;;;;;;22.70;9.93;;;17.90;32.20;;;;;;5015447;28;20026;-78
2022/03/11 11:22:43;;;;;;;20.33;9.10;;;18.40;31.60;;;;;;5017190;28;20022;-77
2022/03/11 11:25:09;;;;;;;22.10;9.85;;;19.10;30.20;;;;;;5020537;28;20022;-78
2022/03/11 11:27:35;;;;;;;18.75;8.77;;;18.50;29.90;;;;;;5020515;28;20026;-79
2022/03/11 11:30:01;;;;;;;15.38;9.02;;;18.30;30.20;;;;;;5019766;28;20037;-77
2022/03/11 11:32:27;;;;;;;18.08;9.07;;;18.20;30.20;;;;;;5020666;28;20125;-78
2022/03/11 11:34:53;;;;;;;19.73;9.57;;;18.40;29.90;;;;;;5022501;28;20089;-77
2022/03/11 11:37:39;;;;;;;22.83;8.90;;;18.30;30.00;;;;;;5025998;28;20062;-78
2022/03/11 11:40:32;;;;;;;25.58;9.27;;;18.40;29.80;;;;;;5016661;28;20026;-78
2022/03/11 11:43:16;;;;;;;21.35;9.60;;;19.70;29.00;;;;;;5008223;28;20499;-78
2022/03/11 11:45:54;;;;;;;22.98;8.77;;;19.70;29.30;;;;;;5016239;28;20030;-76
2022/03/11 11:48:32;;;;;;;16.63;8.73;;;19.90;28.80;;;;;;5015798;28;20033;-77
2022/03/11 11:51:06;;;;;;;15.35;8.82;;;19.80;28.70;;;;;;5018932;28;20495;-78
2022/03/11 11:53:50;;;;;;;24.20;8.85;;;18.70;28.50;;;;;;5023240;28;20022;-78
2022/03/11 11:57:00;;;;;;;21.92;9.02;;;18.10;29.40;;;;;;5020829;28;20068;-78
2022/03/11 11:59:32;;;;;;;20.20;9.50;;;17.50;29.80;;;;;;5027839;28;20076;-77
2022/03/11 12:01:59;;;;;;;22.27;8.55;;;17.90;30.80;;;;;;5028771;28;20024;-76
2022/03/11 12:04:38;;;;;;;16.15;8.85;;;18.70;30.30;;;;;;5029706;28;20033;-77
2022/03/11 12:07:05;;;;;;;18.15;8.95;;;19.50;29.70;;;;;;5027454;28;20028;-78
2022/03/11 12:09:40;;;;;;;19.45;9.10;;;;;;;;;;5027460;28;20022;-77
2022/03/11 12:12:06;;;;;;;15.13;8.32;;;;;;;;;;5023434;28;20055;-78
2022/03/11 12:14:33;;;;;;;21.00;9.20;;;;;;;;;;5026041;28;20085;-77
2022/03/11 12:17:01;;;;;;;22.55;8.95;;;;;;;;;;5023957;28;20025;-76
2022/03/11 12:19:40;;;;;;;20.20;8.57;;;;;;;;;;5023886;28;20022;-77
2022/03/11 12:22:22;;;;;;;17.30;8.75;;;;;;;;;;5022345;28;20018;-77
2022/03/11 12:25:02;;;;;;;18.65;8.98;;;;;;;;;;5024527;28;20022;-78
2022/03/11 12:27:46;;;;;;;22.42;8.55;;;;;;;;;;5021691;28;20030;-76
2022/03/11 12:30:12;;;;;;;24.17;9.45;;;19.80;29.40;;;;;;5018334;28;20075;-77
2022/03/11 12:32:39;;;;;;;17.73;7.75;;;20.40;28.90;;;;;;5024243;28;20061;-78
2022/03/11 12:35:05;;;;;;;18.10;8.05;;;20.80;27.70;;;;;;5019228;28;20025;-78
2022/03/11 12:37:32;;;;;;;16.40;8.15;;;21.10;27.30;;;;;;5019461;28;20045;-76